sensor_id;sensor_type;location;lat;lon;timestamp;P1;P2;P0
47709;PMS7003;33473;51.640;5.892;2023-09-08T00:05:15;15.37;16.9;12.11
47709;PMS7003;33473;51.640;5.892;2023-09-08T00:18:36;15.85;17.01;12.11
47709;PMS7003;33473;51.640;5.892;2023-09-08T00:31:56;16.93;16.9;11.78
47709;PMS7003;33473;51.640;5.892;2023-09-08T00:45:17;14.05;15.92;11.56
47709;PMS7003;33473;51.640;5.892;2023-09-08T00:58:40;16.45;16.58;11.56
47709;PMS7003;33473;51.640;5.892;2023-09-08T01:12:02;15.13;16.03;11.45
47709;PMS7003;33473;51.640;5.892;2023-09-08T01:25:23;15.49;15.6;11.24
47709;PMS7003;33473;51.640;5.892;2023-09-08T01:38:43;15.73;17.01;11.89
47709;PMS7003;33473;51.640;5.892;2023-09-08T01:52:03;18.97;18.32;12.76
47709;PMS7003;33473;51.640;5.892;2023-09-08T02:05:24;20.29;19.3;13.31
47709;PMS7003;33473;51.640;5.892;2023-09-08T02:18:44;18.61;18.65;12.87
47709;PMS7003;33473;51.640;5.892;2023-09-08T02:32:04;15.49;17.01;12.22
47709;PMS7003;33473;51.640;5.892;2023-09-08T02:45:23;15.49;16.8;12.0
47709;PMS7003;33473;51.640;5.892;2023-09-08T02:58:45;16.45;17.56;12.65
47709;PMS7003;33473;51.640;5.892;2023-09-08T03:12:05;16.69;17.45;12.33
47709;PMS7003;33473;51.640;5.892;2023-09-08T03:25:26;16.57;17.23;12.22
47709;PMS7003;33473;51.640;5.892;2023-09-08T03:38:46;16.33;17.12;11.89
47709;PMS7003;33473;51.640;5.892;2023-09-08T03:52:07;16.93;17.34;11.89
47709;PMS7003;33473;51.640;5.892;2023-09-08T04:05:29;13.93;15.81;11.67
47709;PMS7003;33473;51.640;5.892;2023-09-08T04:18:48;15.61;17.12;11.67
47709;PMS7003;33473;51.640;5.892;2023-09-08T04:32:10;15.49;17.01;11.78
47709;PMS7003;33473;51.640;5.892;2023-09-08T04:45:31;16.45;17.67;12.22
47709;PMS7003;33473;51.640;5.892;2023-09-08T04:58:51;16.69;17.56;12.33
47709;PMS7003;33473;51.640;5.892;2023-09-08T05:12:12;16.81;17.89;12.54
47709;PMS7003;33473;51.640;5.892;2023-09-08T05:25:32;19.57;18.76;12.54
47709;PMS7003;33473;51.640;5.892;2023-09-08T05:38:54;17.05;17.99;12.33
47709;PMS7003;33473;51.640;5.892;2023-09-08T05:52:13;18.13;17.99;12.76
47709;PMS7003;33473;51.640;5.892;2023-09-08T06:05:33;17.89;18.43;13.09
47709;PMS7003;33473;51.640;5.892;2023-09-08T06:18:54;21.49;20.17;14.07
47709;PMS7003;33473;51.640;5.892;2023-09-08T06:32:16;22.81;21.05;14.4
47709;PMS7003;33473;51.640;5.892;2023-09-08T06:45:37;23.65;21.48;14.94
47709;PMS7003;33473;51.640;5.892;2023-09-08T06:58:57;23.77;21.48;14.94
47709;PMS7003;33473;51.640;5.892;2023-09-08T07:12:18;26.17;22.46;15.6
47709;PMS7003;33473;51.640;5.892;2023-09-08T07:25:40;25.57;22.68;15.6
47709;PMS7003;33473;51.640;5.892;2023-09-08T07:39:01;24.97;22.14;15.49
47709;PMS7003;33473;51.640;5.892;2023-09-08T07:52:22;26.29;22.9;15.92
47709;PMS7003;33473;51.640;5.892;2023-09-08T08:05:42;25.09;22.57;15.6
47709;PMS7003;33473;51.640;5.892;2023-09-08T08:19:02;25.21;22.46;15.6
47709;PMS7003;33473;51.640;5.892;2023-09-08T08:32:21;24.37;21.92;15.38
47709;PMS7003;33473;51.640;5.892;2023-09-08T08:45:43;24.37;21.92;15.27
47709;PMS7003;33473;51.640;5.892;2023-09-08T08:59:04;23.17;21.16;14.72
47709;PMS7003;33473;51.640;5.892;2023-09-08T09:12:24;20.41;19.63;13.74
47709;PMS7003;33473;51.640;5.892;2023-09-08T09:25:43;23.05;20.17;14.29
47709;PMS7003;33473;51.640;5.892;2023-09-08T09:39:05;16.57;17.12;12.11
47709;PMS7003;33473;51.640;5.892;2023-09-08T09:52:25;16.09;17.34;12.11
47709;PMS7003;33473;51.640;5.892;2023-09-08T10:05:46;13.93;15.81;11.67
47709;PMS7003;33473;51.640;5.892;2023-09-08T10:19:08;12.49;14.51;10.91
47709;PMS7003;33473;51.640;5.892;2023-09-08T10:32:27;10.09;11.35;8.73
47709;PMS7003;33473;51.640;5.892;2023-09-08T10:45:49;10.93;12.54;9.17
47709;PMS7003;33473;51.640;5.892;2023-09-08T10:59:10;12.37;14.18;10.8
47709;PMS7003;33473;51.640;5.892;2023-09-08T11:12:30;10.69;12.87;9.27
47709;PMS7003;33473;51.640;5.892;2023-09-08T11:25:51;9.73;12.0;9.27
47709;PMS7003;33473;51.640;5.892;2023-09-08T11:39:13;11.53;12.65;9.82
47709;PMS7003;33473;51.640;5.892;2023-09-08T11:52:34;11.89;14.07;11.13
47709;PMS7003;33473;51.640;5.892;2023-09-08T12:05:54;12.13;13.63;10.36
47709;PMS7003;33473;51.640;5.892;2023-09-08T12:19:13;6.61;9.27;7.31
47709;PMS7003;33473;51.640;5.892;2023-09-08T12:32:35;10.69;12.65;10.04
47709;PMS7003;33473;51.640;5.892;2023-09-08T12:45:56;6.85;9.06;7.31
47709;PMS7003;33473;51.640;5.892;2023-09-08T12:59:16;5.65;8.4;7.31
47709;PMS7003;33473;51.640;5.892;2023-09-08T13:12:35;6.85;9.27;7.75
47709;PMS7003;33473;51.640;5.892;2023-09-08T13:25:57;6.37;9.06;7.31
47709;PMS7003;33473;51.640;5.892;2023-09-08T13:39:17;7.21;8.95;7.31
47709;PMS7003;33473;51.640;5.892;2023-09-08T13:52:38;7.21;9.71;7.86
47709;PMS7003;33473;51.640;5.892;2023-09-08T14:05:59;7.69;9.71;7.42
47709;PMS7003;33473;51.640;5.892;2023-09-08T14:19:19;5.77;8.29;6.66
47709;PMS7003;33473;51.640;5.892;2023-09-08T14:32:40;5.65;8.08;6.66
47709;PMS7003;33473;51.640;5.892;2023-09-08T14:46:02;5.89;8.62;6.99
47709;PMS7003;33473;51.640;5.892;2023-09-08T14:59:23;7.09;9.17;7.09
47709;PMS7003;33473;51.640;5.892;2023-09-08T15:12:43;7.45;9.38;7.75
47709;PMS7003;33473;51.640;5.892;2023-09-08T15:26:04;6.73;9.38;7.42
47709;PMS7003;33473;51.640;5.892;2023-09-08T15:39:26;8.41;9.17;7.31
47709;PMS7003;33473;51.640;5.892;2023-09-08T15:52:47;6.85;9.49;7.64
47709;PMS7003;33473;51.640;5.892;2023-09-08T16:06:08;8.41;10.15;8.18
47709;PMS7003;33473;51.640;5.892;2023-09-08T16:19:30;7.81;9.93;7.75
47709;PMS7003;33473;51.640;5.892;2023-09-08T16:32:50;8.05;9.6;7.75
47709;PMS7003;33473;51.640;5.892;2023-09-08T16:46:09;7.81;10.04;7.86
47709;PMS7003;33473;51.640;5.892;2023-09-08T16:59:31;10.33;11.67;9.17
47709;PMS7003;33473;51.640;5.892;2023-09-08T17:12:51;11.89;13.63;10.26
47709;PMS7003;33473;51.640;5.892;2023-09-08T17:26:12;11.05;12.65;9.82
47709;PMS7003;33473;51.640;5.892;2023-09-08T17:39:34;15.01;14.18;10.69
47709;PMS7003;33473;51.640;5.892;2023-09-08T17:52:53;12.13;14.07;10.69
47709;PMS7003;33473;51.640;5.892;2023-09-08T18:06:13;10.57;12.65;10.04
47709;PMS7003;33473;51.640;5.892;2023-09-08T18:19:33;16.09;15.92;11.67
47709;PMS7003;33473;51.640;5.892;2023-09-08T18:32:52;24.49;18.87;13.63
47709;PMS7003;33473;51.640;5.892;2023-09-08T18:46:12;18.13;18.1;13.09
47709;PMS7003;33473;51.640;5.892;2023-09-08T18:59:33;27.49;23.34;16.14
47709;PMS7003;33473;51.640;5.892;2023-09-08T19:12:55;24.61;21.48;15.16
47709;PMS7003;33473;51.640;5.892;2023-09-08T19:26:14;23.89;21.48;15.49
47709;PMS7003;33473;51.640;5.892;2023-09-08T19:39:34;26.05;23.12;16.03
47709;PMS7003;33473;51.640;5.892;2023-09-08T19:52:55;25.21;22.46;16.03
47709;PMS7003;33473;51.640;5.892;2023-09-08T20:06:15;25.45;22.79;15.81
47709;PMS7003;33473;51.640;5.892;2023-09-08T20:19:37;27.85;23.99;16.69
47709;PMS7003;33473;51.640;5.892;2023-09-08T20:32:58;26.53;23.01;15.92
47709;PMS7003;33473;51.640;5.892;2023-09-08T20:46:19;27.01;23.55;16.69
47709;PMS7003;33473;51.640;5.892;2023-09-08T20:59:41;27.25;23.12;16.03
47709;PMS7003;33473;51.640;5.892;2023-09-08T21:13:01;23.65;21.48;15.16
47709;PMS7003;33473;51.640;5.892;2023-09-08T21:26:22;26.29;23.23;16.47
47709;PMS7003;33473;51.640;5.892;2023-09-08T21:39:43;26.29;23.12;16.36
47709;PMS7003;33473;51.640;5.892;2023-09-08T21:53:03;30.01;25.41;17.78
47709;PMS7003;33473;51.640;5.892;2023-09-08T22:06:24;28.69;24.53;17.12
47709;PMS7003;33473;51.640;5.892;2023-09-08T22:19:44;29.41;25.19;17.89
47709;PMS7003;33473;51.640;5.892;2023-09-08T22:33:04;28.21;23.44;16.47
47709;PMS7003;33473;51.640;5.892;2023-09-08T22:46:23;26.05;23.23;15.92
47709;PMS7003;33473;51.640;5.892;2023-09-08T22:59:43;27.37;23.77;16.8
47709;PMS7003;33473;51.640;5.892;2023-09-08T23:13:05;28.09;24.53;17.34
47709;PMS7003;33473;51.640;5.892;2023-09-08T23:26:26;24.49;22.14;15.92
47709;PMS7003;33473;51.640;5.892;2023-09-08T23:39:47;27.01;23.23;16.36
47709;PMS7003;33473;51.640;5.892;2023-09-08T23:53:07;31.09;26.28;18.21
